createdAt,value
2019-02-16T00:00:13.408Z,1.50
2019-02-16T00:02:41.910Z,1.50
2019-02-16T00:05:10.452Z,1.50
2019-02-16T00:07:38.925Z,1.50
2019-02-16T00:10:08.078Z,1.40
2019-02-16T00:12:36.751Z,1.30
2019-02-16T00:15:07.073Z,1.30
2019-02-16T00:17:35.534Z,1.30
2019-02-16T00:20:06.293Z,1.30
2019-02-16T00:22:34.900Z,1.30
2019-02-16T00:25:03.748Z,1.30
2019-02-16T00:27:32.237Z,1.30
2019-02-16T00:30:00.865Z,1.30
2019-02-16T00:32:44.728Z,1.20
2019-02-16T00:35:13.205Z,1.20
2019-02-16T00:37:41.640Z,1.10
2019-02-16T00:40:10.102Z,1.20
2019-02-16T00:42:52.217Z,1.20
2019-02-16T00:45:21.064Z,1.20
2019-02-16T00:47:49.564Z,1.20
2019-02-16T00:50:18.031Z,1.20
2019-02-16T00:52:46.508Z,1.20
2019-02-16T00:55:15.013Z,1.30
2019-02-16T00:57:43.494Z,1.30
2019-02-16T01:00:13.000Z,1.30
2019-02-16T01:02:41.488Z,1.30
2019-02-16T01:05:10.110Z,1.30
2019-02-16T01:07:38.564Z,1.30
2019-02-16T01:10:08.632Z,1.30
2019-02-16T01:12:37.148Z,1.30
2019-02-16T01:15:07.748Z,1.30
2019-02-16T01:17:36.240Z,1.30
2019-02-16T01:20:07.953Z,1.30
2019-02-16T01:22:36.493Z,1.30
2019-02-16T01:25:06.241Z,1.30
2019-02-16T01:27:34.772Z,1.20
2019-02-16T01:30:03.633Z,1.30
2019-02-16T01:32:32.132Z,1.30
2019-02-16T01:35:00.664Z,1.20
2019-02-16T01:37:29.148Z,1.20
2019-02-16T01:39:57.655Z,1.20
2019-02-16T01:42:26.114Z,1.20
2019-02-16T01:44:54.615Z,1.10
2019-02-16T01:47:23.087Z,1.00
2019-02-16T01:49:51.548Z,1.10
2019-02-16T01:52:20.085Z,1.20
2019-02-16T01:54:48.557Z,1.30
2019-02-16T01:57:17.028Z,1.30
2019-02-16T01:59:45.500Z,1.30
2019-02-16T02:02:14.061Z,1.30
2019-02-16T02:04:42.545Z,1.30
2019-02-16T02:07:11.041Z,1.20
2019-02-16T02:09:39.538Z,1.20
2019-02-16T02:12:08.564Z,1.20
2019-02-16T02:14:37.021Z,1.10
2019-02-16T02:17:05.584Z,1.10
2019-02-16T02:19:34.289Z,1.00
2019-02-16T02:22:02.748Z,1.00
2019-02-16T02:24:31.242Z,1.00
2019-02-16T02:26:59.692Z,0.90
2019-02-16T02:29:28.196Z,0.90
2019-02-16T02:31:56.775Z,0.90
2019-02-16T02:34:25.314Z,0.90
2019-02-16T02:36:53.772Z,0.90
2019-02-16T02:39:22.286Z,0.90
2019-02-16T02:41:50.733Z,0.80
2019-02-16T02:44:19.211Z,0.90
2019-02-16T02:46:47.707Z,0.80
2019-02-16T02:49:16.252Z,0.80
2019-02-16T02:51:52.462Z,0.80
2019-02-16T02:54:19.973Z,0.70
2019-02-16T02:56:48.472Z,0.70
2019-02-16T02:59:16.927Z,0.70
2019-02-16T03:01:45.453Z,0.70
2019-02-16T03:04:13.926Z,0.70
2019-02-16T03:06:42.497Z,0.70
2019-02-16T03:09:10.988Z,0.70
2019-02-16T03:11:39.443Z,0.80
2019-02-16T03:14:07.889Z,0.80
2019-02-16T03:16:36.381Z,0.80
2019-02-16T03:19:04.864Z,0.80
2019-02-16T03:21:33.358Z,0.80
2019-02-16T03:24:01.937Z,0.80
2019-02-16T03:26:36.255Z,0.80
2019-02-16T03:29:14.022Z,0.70
2019-02-16T03:31:57.263Z,0.70
2019-02-16T03:34:37.826Z,0.70
2019-02-16T03:37:14.847Z,0.60
2019-02-16T03:39:44.920Z,0.60
2019-02-16T03:42:13.364Z,0.60
2019-02-16T03:44:41.843Z,0.60
2019-02-16T03:47:10.376Z,0.60
2019-02-16T03:49:38.873Z,0.60
2019-02-16T03:52:13.780Z,0.70
2019-02-16T03:54:37.720Z,0.70
2019-02-16T03:57:06.265Z,0.70
2019-02-16T03:59:34.733Z,0.60
2019-02-16T04:02:03.197Z,0.50
2019-02-16T04:04:31.674Z,0.50
2019-02-16T04:07:00.149Z,0.50
2019-02-16T04:09:28.637Z,0.40
2019-02-16T04:11:57.130Z,0.40
2019-02-16T04:14:25.596Z,0.30
2019-02-16T04:16:54.072Z,0.40
2019-02-16T04:19:22.566Z,0.40
2019-02-16T04:21:51.058Z,0.40
2019-02-16T04:24:19.621Z,0.40
2019-02-16T04:26:48.190Z,0.40
2019-02-16T04:29:16.669Z,0.40
2019-02-16T04:31:45.147Z,0.40
2019-02-16T04:34:13.637Z,0.40
2019-02-16T04:36:42.105Z,0.40
2019-02-16T04:39:10.663Z,0.40
2019-02-16T04:41:39.166Z,0.40
2019-02-16T04:44:07.710Z,0.50
2019-02-16T04:46:36.270Z,0.40
2019-02-16T04:49:04.775Z,0.50
2019-02-16T04:51:33.298Z,0.50
2019-02-16T04:54:01.851Z,0.50
2019-02-16T04:56:30.424Z,0.40
2019-02-16T04:58:58.901Z,0.30
2019-02-16T05:01:27.377Z,0.30
2019-02-16T05:03:56.183Z,0.30
2019-02-16T05:06:24.713Z,0.40
2019-02-16T05:08:53.197Z,0.30
2019-02-16T05:11:21.756Z,0.20
2019-02-16T05:13:50.237Z,0.20
2019-02-16T05:16:18.736Z,0.20
2019-02-16T05:18:47.207Z,0.20
2019-02-16T05:21:15.667Z,0.20
2019-02-16T05:23:44.220Z,0.20
2019-02-16T05:26:12.696Z,0.20
2019-02-16T05:28:41.162Z,0.20
2019-02-16T05:31:09.894Z,0.20
2019-02-16T05:33:38.394Z,0.20
2019-02-16T05:36:06.934Z,0.20
2019-02-16T05:38:35.495Z,0.20
2019-02-16T05:41:04.038Z,0.20
2019-02-16T05:43:32.633Z,0.20
2019-02-16T05:46:01.113Z,0.30
2019-02-16T05:48:30.000Z,0.40
2019-02-16T05:50:58.556Z,0.60
2019-02-16T05:53:27.067Z,0.60
2019-02-16T05:55:55.590Z,0.60
2019-02-16T05:58:24.073Z,0.60
2019-02-16T06:00:52.766Z,0.70
2019-02-16T06:03:21.246Z,0.90
2019-02-16T06:05:49.758Z,0.90
2019-02-16T06:08:18.262Z,0.80
2019-02-16T06:10:46.715Z,0.60
2019-02-16T06:13:15.209Z,0.40
2019-02-16T06:15:43.703Z,0.30
2019-02-16T06:18:12.194Z,0.30
2019-02-16T06:20:40.660Z,0.20
2019-02-16T06:23:09.257Z,0.20
2019-02-16T06:25:37.795Z,0.10
2019-02-16T06:28:06.334Z,-0.10
2019-02-16T06:30:34.828Z,0.00
2019-02-16T06:33:03.285Z,0.00
2019-02-16T06:35:39.536Z,0.00
2019-02-16T06:38:08.016Z,0.10
2019-02-16T06:40:36.504Z,0.10
2019-02-16T06:43:05.004Z,0.20
2019-02-16T06:45:33.556Z,0.20
2019-02-16T06:48:02.042Z,0.30
2019-02-16T06:50:36.788Z,0.30
2019-02-16T06:53:00.713Z,0.30
2019-02-16T06:55:30.861Z,0.30
2019-02-16T06:57:59.328Z,0.30
2019-02-16T07:00:28.164Z,0.30
2019-02-16T07:02:56.646Z,0.30
2019-02-16T07:05:25.510Z,0.30
2019-02-16T07:07:54.057Z,0.30
2019-02-16T07:10:22.546Z,0.30
2019-02-16T07:12:51.324Z,0.30
2019-02-16T07:15:19.874Z,0.30
2019-02-16T07:17:55.918Z,0.30
2019-02-16T07:20:24.485Z,0.30
2019-02-16T07:22:52.981Z,0.30
2019-02-16T07:25:21.543Z,0.30
2019-02-16T07:27:50.115Z,0.30
2019-02-16T07:30:18.831Z,0.20
2019-02-16T07:32:47.397Z,0.30
2019-02-16T07:35:15.919Z,0.20
2019-02-16T07:37:44.472Z,0.20
2019-02-16T07:40:13.022Z,0.20
2019-02-16T07:42:49.448Z,0.20
2019-02-16T07:45:22.098Z,0.20
2019-02-16T07:47:52.285Z,0.20
2019-02-16T07:50:22.437Z,0.20
2019-02-16T07:52:52.536Z,0.20
2019-02-16T07:55:22.650Z,0.30
2019-02-16T07:57:52.828Z,0.30
2019-02-16T08:00:22.982Z,0.40
2019-02-16T08:02:59.295Z,0.40
2019-02-16T08:05:44.860Z,0.40
2019-02-16T08:08:14.997Z,0.40
2019-02-16T08:10:45.286Z,0.40
2019-02-16T08:13:21.449Z,0.50
2019-02-16T08:18:43.372Z,0.50
2019-02-16T08:21:16.622Z,0.50
2019-02-16T08:23:52.237Z,0.50
2019-02-16T08:26:31.628Z,0.60
2019-02-16T08:29:04.445Z,0.60
2019-02-16T08:31:43.333Z,0.60
2019-02-16T08:34:19.369Z,0.60
2019-02-16T08:36:52.057Z,0.70
2019-02-16T08:39:31.158Z,0.70
2019-02-16T08:42:17.765Z,0.70
2019-02-16T08:44:47.993Z,0.70
2019-02-16T08:47:18.176Z,0.70
2019-02-16T08:49:53.853Z,0.80
2019-02-16T08:52:26.473Z,0.80
2019-02-16T08:55:02.817Z,0.90
2019-02-16T08:57:33.002Z,1.00
2019-02-16T09:00:11.978Z,1.20
2019-02-16T09:02:54.002Z,1.30
2019-02-16T09:05:35.933Z,1.40
2019-02-16T09:08:06.071Z,1.50
2019-02-16T09:10:51.029Z,1.60
2019-02-16T09:13:21.149Z,1.70
2019-02-16T09:16:06.205Z,2.00
2019-02-16T09:18:42.135Z,2.20
2019-02-16T09:21:15.370Z,2.40
2019-02-16T09:23:48.036Z,2.60
2019-02-16T09:26:36.369Z,2.80
2019-02-16T09:29:06.566Z,3.00
2019-02-16T09:31:39.145Z,3.30
2019-02-16T09:34:12.513Z,3.40
2019-02-16T09:36:48.774Z,3.70
2019-02-16T09:39:27.873Z,3.90
2019-02-16T09:41:58.261Z,4.20
2019-02-16T09:44:44.686Z,4.40
2019-02-16T09:47:29.934Z,4.60
2019-02-16T09:50:00.337Z,4.90
2019-02-16T09:52:30.532Z,5.10
2019-02-16T09:55:15.871Z,5.30
2019-02-16T09:57:48.831Z,5.40
2019-02-16T10:00:21.821Z,5.60
2019-02-16T10:02:52.028Z,5.60
2019-02-16T10:05:37.516Z,5.70
2019-02-16T10:08:13.105Z,5.80
2019-02-16T10:10:46.263Z,5.90
2019-02-16T10:13:41.321Z,6.00
2019-02-16T10:16:11.453Z,6.10
2019-02-16T10:18:41.568Z,6.30
2019-02-16T10:21:11.749Z,6.50
2019-02-16T10:23:47.570Z,6.60
2019-02-16T10:26:26.246Z,6.70
2019-02-16T10:28:56.453Z,6.80
2019-02-16T10:31:29.501Z,6.90
2019-02-16T10:34:02.589Z,7.00
2019-02-16T10:36:50.722Z,7.20
2019-02-16T10:39:23.614Z,7.30
2019-02-16T10:41:56.612Z,7.50
2019-02-16T10:44:32.416Z,7.70
2019-02-16T10:47:02.540Z,7.90
2019-02-16T10:49:32.816Z,8.00
2019-02-16T10:52:03.121Z,8.20
2019-02-16T10:54:33.227Z,8.40
2019-02-16T10:57:12.386Z,8.60
2019-02-16T10:59:48.314Z,8.80
2019-02-16T11:02:18.477Z,9.00
2019-02-16T11:05:06.830Z,9.20
2019-02-16T11:07:46.274Z,9.40
2019-02-16T11:10:16.465Z,9.70
2019-02-16T11:12:46.581Z,10.00
2019-02-16T11:15:22.436Z,10.20
2019-02-16T11:17:52.774Z,10.50
2019-02-16T11:20:28.832Z,10.70
2019-02-16T11:22:59.097Z,10.70
2019-02-16T11:25:34.986Z,10.80
2019-02-16T11:28:16.889Z,11.00
2019-02-16T11:30:47.032Z,11.20
2019-02-16T11:33:20.144Z,11.50
2019-02-16T11:36:05.607Z,11.70
2019-02-16T11:38:35.781Z,11.90
2019-02-16T11:41:18.602Z,12.20
2019-02-16T11:43:46.107Z,12.40
2019-02-16T11:46:34.589Z,12.60
2019-02-16T11:49:21.129Z,12.80
2019-02-16T11:52:09.967Z,12.90
2019-02-16T11:54:45.703Z,13.10
2019-02-16T11:57:27.334Z,13.40
2019-02-16T12:00:03.563Z,13.60
2019-02-16T12:02:42.481Z,13.90
2019-02-16T12:05:28.504Z,14.10
2019-02-16T12:07:58.987Z,14.20
2019-02-16T12:10:47.148Z,14.20
2019-02-16T12:13:17.333Z,14.30
2019-02-16T12:15:56.546Z,14.20
2019-02-16T12:18:26.657Z,14.20
2019-02-16T12:20:59.217Z,14.50
2019-02-16T12:23:35.400Z,14.60
2019-02-16T12:26:11.373Z,14.80
2019-02-16T12:28:57.626Z,14.70
2019-02-16T12:31:53.608Z,14.70
2019-02-16T12:34:40.004Z,14.70
2019-02-16T12:37:10.161Z,14.60
2019-02-16T12:39:55.261Z,14.60
2019-02-16T12:42:25.405Z,14.70
2019-02-16T12:44:55.533Z,14.70
2019-02-16T12:47:31.513Z,14.70
2019-02-16T12:50:04.619Z,14.80
2019-02-16T12:52:34.948Z,14.60
2019-02-16T12:55:14.399Z,14.50
2019-02-16T12:57:39.746Z,14.60
2019-02-16T13:00:12.217Z,14.80
2019-02-16T13:02:42.331Z,15.00
2019-02-16T13:05:27.160Z,15.10
2019-02-16T13:08:03.511Z,15.10
2019-02-16T13:10:34.040Z,15.10
2019-02-16T13:13:09.986Z,15.20
2019-02-16T13:15:46.139Z,15.10
2019-02-16T13:18:25.318Z,15.00
2019-02-16T13:21:11.598Z,14.90
2019-02-16T13:23:50.850Z,14.90
2019-02-16T13:26:35.897Z,14.90
2019-02-16T13:29:08.681Z,14.70
2019-02-16T13:31:38.772Z,14.50
2019-02-16T13:34:17.826Z,14.50
2019-02-16T13:37:03.429Z,14.50
2019-02-16T13:39:39.400Z,14.40
2019-02-16T13:42:09.593Z,14.20
2019-02-16T13:44:39.776Z,13.90
2019-02-16T13:47:27.793Z,13.40
2019-02-16T13:50:03.816Z,13.10
2019-02-16T13:52:36.644Z,12.70
2019-02-16T13:55:33.185Z,12.30
2019-02-16T13:58:06.814Z,12.00
2019-02-16T14:00:45.813Z,11.90
2019-02-16T14:03:21.604Z,11.60
2019-02-16T14:05:52.009Z,11.30
2019-02-16T14:08:40.086Z,11.10
2019-02-16T14:11:22.297Z,10.90
2019-02-16T14:13:52.412Z,10.80
2019-02-16T14:16:22.541Z,10.70
2019-02-16T14:18:51.150Z,10.70
2019-02-16T14:21:19.713Z,10.60
2019-02-16T14:23:48.288Z,10.50
2019-02-16T14:26:16.769Z,10.50
2019-02-16T14:28:45.258Z,10.40
2019-02-16T14:31:15.389Z,10.30
2019-02-16T14:33:43.879Z,10.30
2019-02-16T14:36:12.345Z,10.20
2019-02-16T14:38:42.473Z,10.10
2019-02-16T14:41:10.936Z,10.00
2019-02-16T14:43:39.437Z,9.80
2019-02-16T14:46:07.912Z,9.80
2019-02-16T14:48:36.379Z,9.70
2019-02-16T14:51:04.944Z,9.60
2019-02-16T14:53:33.403Z,9.50
2019-02-16T14:56:01.867Z,9.50
2019-02-16T14:58:30.344Z,9.50
2019-02-16T15:00:58.812Z,9.40
2019-02-16T15:03:27.473Z,9.30
2019-02-16T15:05:55.964Z,9.30
2019-02-16T15:08:24.508Z,9.20
2019-02-16T15:10:52.993Z,9.10
2019-02-16T15:13:21.657Z,9.00
2019-02-16T15:15:50.197Z,9.00
2019-02-16T15:18:18.673Z,8.90
2019-02-16T15:20:47.158Z,8.90
2019-02-16T15:23:15.648Z,8.90
2019-02-16T15:25:44.128Z,8.90
2019-02-16T15:28:12.612Z,8.80
2019-02-16T15:30:41.080Z,8.80
2019-02-16T15:33:09.565Z,8.70
2019-02-16T15:35:38.125Z,8.60
2019-02-16T15:38:06.625Z,8.60
2019-02-16T15:40:35.182Z,8.50
2019-02-16T15:43:03.667Z,8.40
2019-02-16T15:45:32.244Z,8.30
2019-02-16T15:48:00.749Z,8.20
2019-02-16T15:50:29.313Z,8.10
2019-02-16T15:52:57.814Z,8.10
2019-02-16T15:55:26.276Z,8.10
2019-02-16T15:57:55.065Z,8.10
2019-02-16T16:00:24.973Z,8.10
2019-02-16T16:02:53.459Z,8.10
2019-02-16T16:05:21.932Z,8.00
2019-02-16T16:07:52.078Z,7.80
2019-02-16T16:10:24.854Z,7.80
2019-02-16T16:13:00.873Z,7.80
2019-02-16T16:15:41.814Z,7.70
2019-02-16T16:18:11.480Z,7.70
2019-02-16T16:20:41.601Z,7.60
2019-02-16T16:23:17.177Z,7.60
2019-02-16T16:25:47.288Z,7.50
2019-02-16T16:28:17.400Z,7.50
2019-02-16T16:30:59.431Z,7.50
2019-02-16T16:33:38.298Z,7.30
2019-02-16T16:36:08.566Z,7.20
2019-02-16T16:38:41.747Z,7.10
2019-02-16T16:41:11.909Z,7.10
2019-02-16T16:43:44.705Z,7.10
2019-02-16T16:46:30.164Z,7.00
2019-02-16T16:49:15.422Z,6.90
2019-02-16T16:51:48.269Z,6.90
2019-02-16T16:54:34.795Z,6.80
2019-02-16T16:57:04.911Z,6.80
2019-02-16T16:59:41.006Z,6.80
2019-02-16T17:02:29.432Z,6.70
2019-02-16T17:04:59.627Z,6.70
2019-02-16T17:07:41.370Z,6.60
2019-02-16T17:10:20.298Z,6.50
2019-02-16T17:12:50.407Z,6.50
2019-02-16T17:15:36.677Z,6.50
2019-02-16T17:18:06.781Z,6.50
2019-02-16T17:20:39.892Z,6.50
2019-02-16T17:23:15.716Z,6.50
2019-02-16T17:25:51.769Z,6.50
2019-02-16T17:28:21.953Z,6.60
2019-02-16T17:30:58.104Z,6.50
2019-02-16T17:33:28.217Z,6.50
2019-02-16T17:36:01.104Z,6.50
2019-02-16T17:38:31.232Z,6.30
2019-02-16T17:41:04.001Z,6.20
2019-02-16T17:43:50.605Z,6.20
2019-02-16T17:46:20.788Z,6.10
2019-02-16T17:48:50.894Z,6.10
2019-02-16T17:51:21.000Z,6.00
2019-02-16T17:53:54.033Z,6.00
2019-02-16T17:56:35.864Z,5.90
2019-02-16T17:59:06.215Z,5.90
2019-02-16T18:01:36.480Z,5.80
2019-02-16T18:04:22.816Z,5.80
2019-02-16T18:07:04.966Z,5.70
2019-02-16T18:09:40.886Z,5.60
2019-02-16T18:12:19.883Z,5.60
2019-02-16T18:14:51.215Z,5.50
2019-02-16T18:17:37.764Z,5.40
2019-02-16T18:20:20.012Z,5.40
2019-02-16T18:22:56.154Z,5.30
2019-02-16T18:25:26.370Z,5.30
2019-02-16T18:27:56.560Z,5.30
2019-02-16T18:30:32.717Z,5.20
2019-02-16T18:33:11.557Z,5.20
2019-02-16T18:35:44.128Z,5.20
2019-02-16T18:38:14.737Z,5.20
2019-02-16T18:40:50.874Z,5.10
2019-02-16T18:43:36.984Z,5.10
2019-02-16T18:46:07.165Z,5.10
2019-02-16T18:48:53.856Z,5.10
2019-02-16T18:51:42.317Z,5.20
2019-02-16T18:54:21.604Z,5.40
2019-02-16T18:57:06.684Z,5.40
2019-02-16T18:59:35.285Z,5.40
2019-02-16T19:02:11.362Z,5.40
2019-02-16T19:04:41.500Z,5.40
2019-02-16T19:07:11.676Z,5.50
2019-02-16T19:09:41.789Z,5.50
2019-02-16T19:12:11.947Z,5.60
2019-02-16T19:14:44.908Z,5.80
2019-02-16T19:17:20.973Z,5.90
2019-02-16T19:20:07.514Z,5.90
2019-02-16T19:22:46.947Z,5.80
2019-02-16T19:25:17.188Z,5.80
2019-02-16T19:27:59.296Z,5.70
2019-02-16T19:30:48.033Z,5.60
2019-02-16T19:33:27.117Z,5.50
2019-02-16T19:36:06.429Z,5.40
2019-02-16T19:38:39.384Z,5.30
2019-02-16T19:41:24.728Z,5.20
2019-02-16T19:44:06.718Z,5.30
2019-02-16T19:46:36.918Z,5.40
2019-02-16T19:49:07.026Z,5.40
2019-02-16T19:51:39.978Z,5.50
2019-02-16T19:54:10.168Z,5.50
2019-02-16T19:56:40.366Z,5.40
2019-02-16T19:59:10.490Z,5.30
2019-02-16T20:01:55.387Z,5.30
2019-02-16T20:04:25.500Z,5.20
2019-02-16T20:06:58.525Z,5.20
2019-02-16T20:09:34.446Z,5.10
2019-02-16T20:12:06.956Z,5.20
2019-02-16T20:14:40.060Z,5.20
2019-02-16T20:17:27.866Z,5.30
2019-02-16T20:20:14.190Z,5.20
2019-02-16T20:22:46.780Z,5.10
2019-02-16T20:25:31.604Z,5.00
2019-02-16T20:28:17.999Z,5.00
2019-02-16T20:30:50.852Z,5.10
2019-02-16T20:33:33.185Z,5.20
2019-02-16T20:36:05.965Z,5.30
2019-02-16T20:38:45.101Z,5.30
2019-02-16T20:41:15.233Z,5.40
2019-02-16T20:43:45.393Z,5.30
2019-02-16T20:46:15.511Z,5.20
2019-02-16T20:48:45.616Z,5.20
2019-02-16T20:51:27.693Z,5.20
2019-02-16T20:54:03.603Z,5.20
2019-02-16T20:56:36.429Z,5.20
2019-02-16T20:59:15.341Z,5.10
2019-02-16T21:01:54.208Z,5.00
2019-02-16T21:04:40.547Z,4.90
2019-02-16T21:07:19.428Z,4.90
2019-02-16T21:09:49.549Z,4.80
2019-02-16T21:12:25.670Z,4.80
2019-02-16T21:15:07.827Z,4.80
2019-02-16T21:17:54.348Z,4.80
2019-02-16T21:20:24.484Z,4.80
2019-02-16T21:22:58.431Z,4.70
2019-02-16T21:25:31.811Z,4.80
2019-02-16T21:28:01.907Z,4.90
2019-02-16T21:30:37.996Z,5.00
2019-02-16T21:33:08.117Z,5.10
2019-02-16T21:35:38.213Z,5.10
2019-02-16T21:38:08.358Z,5.10
2019-02-16T21:40:38.452Z,5.10
2019-02-16T21:43:11.017Z,4.90
2019-02-16T21:45:47.624Z,4.80
2019-02-16T21:48:23.884Z,4.60
2019-02-16T21:51:09.980Z,4.50
2019-02-16T21:53:42.548Z,4.50
2019-02-16T21:56:15.340Z,4.50
2019-02-16T21:59:00.432Z,4.50
2019-02-16T22:01:30.525Z,4.60
2019-02-16T22:04:00.648Z,4.70
2019-02-16T22:06:33.640Z,4.80
2019-02-16T22:09:09.880Z,4.70
2019-02-16T22:11:52.301Z,4.70
2019-02-16T22:14:20.774Z,4.50
2019-02-16T22:16:49.265Z,4.30
2019-02-16T22:19:17.820Z,4.30
2019-02-16T22:21:46.293Z,4.30
2019-02-16T22:24:14.779Z,4.40
2019-02-16T22:26:43.255Z,4.60
2019-02-16T22:29:11.733Z,4.70
2019-02-16T22:31:40.209Z,4.80
2019-02-16T22:34:08.750Z,4.80
2019-02-16T22:36:37.233Z,4.70
2019-02-16T22:39:06.039Z,4.50
2019-02-16T22:41:34.582Z,4.40
2019-02-16T22:44:03.066Z,4.30
2019-02-16T22:46:31.527Z,4.20
2019-02-16T22:48:59.996Z,4.00
2019-02-16T22:51:28.480Z,4.00
2019-02-16T22:53:57.112Z,4.00
2019-02-16T22:56:25.557Z,3.90
2019-02-16T22:58:54.034Z,3.90
2019-02-16T23:01:22.736Z,3.80
2019-02-16T23:03:51.309Z,3.80
2019-02-16T23:06:19.922Z,3.70
2019-02-16T23:08:48.484Z,3.60
2019-02-16T23:11:16.960Z,3.50
2019-02-16T23:13:45.440Z,3.50
2019-02-16T23:16:13.920Z,3.50
2019-02-16T23:18:42.444Z,3.40
2019-02-16T23:21:10.921Z,3.40
2019-02-16T23:23:39.404Z,3.30
2019-02-16T23:26:07.925Z,3.20
2019-02-16T23:28:38.795Z,3.20
2019-02-16T23:31:06.673Z,3.20
2019-02-16T23:33:35.168Z,3.20
2019-02-16T23:36:03.630Z,3.10
2019-02-16T23:38:32.072Z,3.10
2019-02-16T23:41:00.573Z,3.10
2019-02-16T23:43:29.039Z,3.20
2019-02-16T23:45:57.529Z,3.20
2019-02-16T23:48:26.013Z,3.20
2019-02-16T23:50:54.548Z,3.30
2019-02-16T23:53:22.997Z,3.30
2019-02-16T23:55:51.497Z,3.50
2019-02-16T23:58:19.989Z,3.70
